Time;durP1;ratioP1;P1;durP2;ratioP2;P2;SDS_P1;SDS_P2;PMS_P1;PMS_P2;Temp;Humidity;BMP_temperature;BMP_pressure;BME280_temperature;BME280_humidity;BME280_pressure;Samples;Min_cycle;Max_cycle;Signal;HPM_P1;HPM_P2
2022/01/13 00:00:46;;;;;;;45.40;21.75;;;;;;;2.20;92.16;103996.63;5080223;28;20057;-67
2022/01/13 00:03:12;;;;;;;51.40;22.42;;;;;;;2.25;92.64;103991.00;5052978;28;20491;-67
2022/01/13 00:05:37;;;;;;;60.42;21.85;;;;;;;2.25;91.90;103989.19;5052170;28;20116;-67
2022/01/13 00:08:02;;;;;;;57.13;20.40;;;;;;;2.23;91.81;103991.09;5051954;28;20033;-67
2022/01/13 00:10:27;;;;;;;72.88;21.85;;;;;;;2.20;92.07;103993.94;5057087;28;20078;-67
2022/01/13 00:12:59;;;;;;;65.60;21.45;;;;;;;2.18;91.88;104008.38;5070116;28;20071;-67
2022/01/13 00:15:38;;;;;;;71.05;21.83;;;;;;;2.10;92.11;104011.50;5072174;28;20024;-67
2022/01/13 00:18:11;;;;;;;59.13;21.40;;;;;;;2.04;92.20;104002.03;5070304;28;20111;-67
2022/01/13 00:26:12;;;;;;;57.65;22.85;;;;;;;1.93;92.58;104001.78;5071571;28;20051;-67
2022/01/13 00:28:37;;;;;;;56.90;23.20;;;;;;;1.94;93.28;104003.53;5071791;28;20082;-67
2022/01/13 00:31:06;;;;;;;70.43;23.85;;;;;;;1.99;92.64;104008.59;5071441;28;20484;-67
2022/01/13 00:33:31;;;;;;;49.63;22.70;;;;;;;2.01;92.91;104001.34;5070143;28;20036;-67
2022/01/13 00:35:58;;;;;;;49.13;21.88;;;;;;;2.01;92.58;104009.34;5053228;28;20032;-67
2022/01/13 00:38:28;;;;;;;50.38;22.55;;;;;;;2.03;92.77;104016.31;5069986;28;20039;-67
2022/01/13 00:40:54;;;;;;;58.70;21.65;;;;;;;2.02;92.58;104001.25;5071871;28;20068;-67
2022/01/13 00:43:19;;;;;;;65.63;21.90;;;;;;;2.02;92.76;104009.25;5069882;28;20056;-67
2022/01/13 00:45:47;;;;;;;57.97;20.95;;;;;;;1.93;92.92;104000.00;5059944;28;20025;-67
2022/01/13 00:48:12;;;;;;;56.63;22.00;;;;;;;1.93;92.71;103994.66;5052548;28;20033;-67
2022/01/13 00:50:37;;;;;;;62.55;23.23;;;;;;;1.93;93.46;103994.66;5055188;28;20028;-67
2022/01/13 00:53:03;;;;;;;44.67;21.30;;;;;;;1.94;93.08;103991.00;5072289;28;20106;-67
2022/01/13 00:55:44;;;;;;;52.53;22.40;;;;;;;1.95;93.03;103990.06;5062636;28;20036;-67
2022/01/13 00:58:09;;;;;;;48.92;20.65;;;;;;;1.99;92.96;104000.56;5073098;28;20111;-67
2022/01/13 01:00:35;;;;;;;42.60;20.85;;;;;;;1.99;92.75;103992.56;5061422;28;20119;-67
2022/01/13 01:03:00;;;;;;;52.53;20.35;;;;;;;2.01;92.44;103985.31;5074941;28;20031;-67
2022/01/13 01:05:25;;;;;;;49.05;19.08;;;;;;;1.93;92.37;103977.75;5075078;28;20035;-67
2022/01/13 01:07:51;;;;;;;39.35;20.55;;;;;;;1.91;92.64;103980.50;5063055;28;20507;-67
2022/01/13 01:10:16;;;;;;;36.05;19.15;;;;;;;1.91;92.60;103985.84;5054756;28;20036;-67
2022/01/13 01:12:41;;;;;;;36.00;18.35;;;;;;;1.92;93.01;103990.25;5071262;28;20036;-67
2022/01/13 01:15:07;;;;;;;40.60;19.70;;;;;;;1.93;92.77;103992.00;5076575;28;20063;-67
2022/01/13 01:17:35;;;;;;;36.83;20.05;;;;;;;1.97;92.32;103989.13;5072505;28;20025;-67
2022/01/13 01:20:06;;;;;;;43.10;19.30;;;;;;;1.94;92.37;103980.31;5054594;28;20029;-67
2022/01/13 01:22:41;;;;;;;50.72;19.50;;;;;;;1.93;92.16;103978.63;5088548;28;20115;-67
2022/01/13 01:27:40;;;;;;;38.50;19.30;;;;;;;1.91;92.48;103980.50;5054730;28;20040;-67
2022/01/13 01:30:21;;;;;;;43.15;19.20;;;;;;;1.88;91.82;103991.38;5054468;28;20040;-67
2022/01/13 01:32:47;;;;;;;46.28;18.95;;;;;;;1.83;92.68;104004.16;5055716;28;20063;-67
2022/01/13 01:35:14;;;;;;;49.65;18.80;;;;;;;1.85;91.44;103994.22;5068071;28;20028;-67
2022/01/13 01:37:40;;;;;;;51.00;18.30;;;;;;;1.75;92.03;103995.72;5074616;28;20120;-67
2022/01/13 01:40:07;;;;;;;58.35;18.02;;;;;;;1.71;92.01;104010.22;5054493;28;20119;-67
2022/01/13 01:42:32;;;;;;;29.70;17.00;;;;;;;1.66;92.03;104001.59;5064360;28;20094;-67
2022/01/13 01:44:59;;;;;;;35.15;16.75;;;;;;;1.67;92.84;103992.63;5054200;28;20393;-67
2022/01/13 01:47:28;;;;;;;45.10;16.88;;;;;;;1.66;92.43;103996.25;5070128;28;20113;-67
2022/01/13 01:49:58;;;;;;;32.47;16.90;;;;;;;1.59;92.58;103985.94;5055338;28;20071;-67
2022/01/13 01:52:24;;;;;;;34.63;16.67;;;;;;;1.60;92.01;103981.44;5053725;28;20472;-67
2022/01/13 01:54:50;;;;;;;58.75;17.58;;;;;;;1.63;93.02;103980.41;5072390;28;20026;-67
2022/01/13 01:57:18;;;;;;;35.05;17.15;;;;;;;1.63;92.61;103978.63;5073901;28;20031;-67
2022/01/13 01:59:44;;;;;;;47.33;16.67;;;;;;;1.65;92.96;103967.84;5054140;28;20167;-67
2022/01/13 02:02:12;;;;;;;48.75;16.15;;;;;;;1.65;92.49;103975.84;5049858;28;20032;-67
2022/01/13 02:04:38;;;;;;;49.50;16.08;;;;;;;1.67;92.61;103972.13;5056998;28;20041;-67
2022/01/13 02:07:07;;;;;;;46.60;17.17;;;;;;;1.63;92.36;103973.28;5064563;28;20486;-67
2022/01/13 02:09:35;;;;;;;34.25;15.20;;;;;;;1.62;92.67;103974.22;5073578;28;20066;-67
2022/01/13 02:12:06;;;;;;;34.20;15.45;;;;;;;1.64;92.42;103971.47;5073881;28;20257;-67
2022/01/13 02:14:35;;;;;;;50.00;15.70;;;;;;;1.64;92.39;103974.13;5071729;28;20062;-67
2022/01/13 02:17:11;;;;;;;29.17;15.75;;;;;;;1.58;92.99;103973.50;5064877;28;20075;-67
2022/01/13 02:19:40;;;;;;;38.25;15.07;;;;;;;1.62;93.12;103984.03;5053649;28;20025;-67
2022/01/13 02:22:06;;;;;;;54.88;14.68;;;;;;;1.65;92.58;103981.19;5053049;28;20415;-67
2022/01/13 02:24:32;;;;;;;49.40;15.73;;;;;;;1.58;92.79;103986.00;5057503;28;20035;-67
2022/01/13 02:26:57;;;;;;;30.00;13.90;;;;;;;1.57;92.64;103987.84;5073573;28;20468;-67
2022/01/13 02:29:23;;;;;;;31.30;14.93;;;;;;;1.58;93.27;103989.53;5058051;28;20087;-67
2022/01/13 02:31:48;;;;;;;48.97;15.27;;;;;;;1.57;92.96;103989.63;5053737;28;20114;-67
2022/01/13 02:34:13;;;;;;;30.73;15.80;;;;;;;1.55;92.78;103988.84;5054211;28;20063;-67
2022/01/13 02:36:42;;;;;;;24.92;15.30;;;;;;;1.58;93.35;103989.53;5066599;28;20033;-67
2022/01/13 02:39:07;;;;;;;28.92;14.82;;;;;;;1.60;93.53;103981.44;5072298;28;20435;-67
2022/01/13 02:41:33;;;;;;;28.20;15.32;;;;;;;1.65;93.57;103981.19;5073232;28;20060;-67
2022/01/13 02:43:59;;;;;;;30.67;16.30;;;;;;;1.72;92.99;103979.88;5072837;28;20036;-67
2022/01/13 02:49:11;;;;;;;30.02;16.02;;;;;;;1.77;93.24;103977.81;5055989;28;20041;-67
2022/01/13 02:51:38;;;;;;;27.33;15.93;;;;;;;1.77;93.07;103976.00;5052979;28;20659;-67
2022/01/13 02:54:05;;;;;;;38.92;16.65;;;;;;;1.80;92.98;103987.44;5055277;28;20052;-67
2022/01/13 02:56:30;;;;;;;40.33;16.95;;;;;;;1.80;92.82;103984.75;5073349;28;20042;-67
2022/01/13 02:58:56;;;;;;;35.15;16.25;;;;;;;1.76;92.89;103981.41;5069335;28;20241;-67
2022/01/13 03:01:22;;;;;;;32.42;16.92;;;;;;;1.71;93.24;103979.03;5057086;28;20530;-67
2022/01/13 03:03:47;;;;;;;31.35;15.93;;;;;;;1.70;92.69;103982.63;5072259;28;20475;-67
2022/01/13 03:06:21;;;;;;;32.72;16.65;;;;;;;1.71;93.05;103975.50;5072659;28;20028;-67
2022/01/13 03:08:47;;;;;;;35.70;15.88;;;;;;;1.73;93.12;103981.59;5055498;28;20028;-67
2022/01/13 03:11:14;;;;;;;44.38;16.60;;;;;;;1.71;93.24;103980.84;5088164;28;20036;-67
2022/01/13 03:13:39;;;;;;;29.98;17.42;;;;;;;1.71;93.21;103979.03;5079693;28;20384;-67
2022/01/13 03:16:11;;;;;;;41.50;17.60;;;;;;;1.69;93.17;103966.69;5071827;28;20035;-67
2022/01/13 03:18:37;;;;;;;59.70;17.83;;;;;;;1.72;92.86;103966.53;5056277;28;20041;-67
2022/01/13 03:21:03;;;;;;;34.13;17.40;;;;;;;1.75;93.00;103969.00;5052341;28;20029;-67
2022/01/13 03:23:29;;;;;;;35.25;17.50;;;;;;;1.72;92.89;103961.19;5053285;28;20078;-69
2022/01/13 03:25:54;;;;;;;53.03;17.38;;;;;;;1.73;92.82;103955.75;5051368;28;20025;-67
2022/01/13 03:28:29;;;;;;;46.80;17.77;;;;;;;1.72;93.49;103966.53;5057857;28;20033;-71
2022/01/13 03:30:55;;;;;;;49.13;19.02;;;;;;;1.73;92.97;103957.56;5071875;28;20032;-67
2022/01/13 03:33:21;;;;;;;44.80;18.02;;;;;;;1.76;93.13;103962.72;5061605;28;20032;-69
2022/01/13 03:35:46;;;;;;;52.65;20.17;;;;;;;1.75;92.65;103964.56;5067856;28;20158;-68
2022/01/13 03:38:12;;;;;;;44.70;20.45;;;;;;;1.71;93.36;103971.00;5072336;28;20407;-66
2022/01/13 03:40:38;;;;;;;64.18;21.10;;;;;;;1.70;92.86;103961.28;5072484;28;20033;-67
2022/01/13 03:43:04;;;;;;;46.97;20.52;;;;;;;1.67;93.47;103955.25;5071958;28;20028;-67
2022/01/13 03:45:32;;;;;;;52.92;21.00;;;;;;;1.68;93.04;103959.66;5072220;28;20051;-67
2022/01/13 03:47:57;;;;;;;61.78;21.67;;;;;;;1.69;93.80;103953.34;5062195;28;20429;-67
2022/01/13 03:50:23;;;;;;;48.60;20.65;;;;;;;1.67;93.54;103955.25;5051896;28;20114;-67
2022/01/13 03:52:57;;;;;;;47.47;22.27;;;;;;;1.69;93.28;103962.25;5062050;28;20372;-67
2022/01/13 03:56:26;;;;;;;81.88;21.75;;;;;;;1.75;92.94;103959.22;5082841;28;20055;-67
2022/01/13 03:59:20;;;;;;;43.65;20.85;;;;;;;1.67;93.63;103960.59;5058342;28;20104;-67
2022/01/13 04:02:08;;;;;;;53.17;21.83;;;;;;;1.70;93.49;103952.41;5061711;28;20051;-67
2022/01/13 04:04:45;;;;;;;53.65;22.45;;;;;;;1.62;93.80;103957.34;5070531;28;20089;-67
2022/01/13 04:07:20;;;;;;;53.22;21.17;;;;;;;1.64;93.35;103944.75;5065982;28;20043;-67
2022/01/13 04:09:45;;;;;;;49.67;22.65;;;;;;;1.62;93.08;103955.53;5052124;28;20043;-67
2022/01/13 04:12:13;;;;;;;45.10;23.03;;;;;;;1.63;93.36;103948.38;5056942;28;20036;-67
2022/01/13 04:17:11;;;;;;;53.05;24.25;;;;;;;1.65;93.01;103946.50;5069254;28;20037;-67
2022/01/13 04:19:37;;;;;;;45.83;22.63;;;;;;;1.63;93.77;103946.59;5072116;28;20028;-67
2022/01/13 04:22:04;;;;;;;49.50;23.70;;;;;;;1.68;94.00;103951.66;5072009;28;20069;-67
2022/01/13 04:24:29;;;;;;;56.33;22.50;;;;;;;1.63;93.66;103948.38;5074330;28;20033;-67
2022/01/13 04:26:56;;;;;;;45.80;21.88;;;;;;;1.61;93.29;103943.13;5075518;28;20452;-67
2022/01/13 04:29:31;;;;;;;41.50;21.17;;;;;;;1.61;93.11;103960.97;5075393;28;20055;-67
2022/01/13 04:31:56;;;;;;;56.78;22.10;;;;;;;1.56;93.40;103947.88;5074419;28;20039;-67
2022/01/13 04:34:22;;;;;;;52.47;22.85;;;;;;;1.57;92.83;103950.47;5064583;28;20044;-67
2022/01/13 04:36:47;;;;;;;44.80;20.95;;;;;;;1.57;93.17;103950.47;5055701;28;20445;-67
2022/01/13 04:39:14;;;;;;;51.40;23.55;;;;;;;1.57;93.45;103941.56;5068193;28;20043;-67
2022/01/13 04:41:43;;;;;;;65.38;23.42;;;;;;;1.62;93.76;103941.34;5074593;28;20033;-68
2022/01/13 04:44:11;;;;;;;53.00;23.27;;;;;;;1.62;93.76;103930.66;5056196;28;20029;-67
2022/01/13 04:46:37;;;;;;;65.55;23.63;;;;;;;1.61;93.18;103934.25;5055416;28;20025;-67
2022/01/13 04:49:04;;;;;;;58.53;24.10;;;;;;;1.56;93.91;103937.22;5064339;28;20526;-67
2022/01/13 04:51:30;;;;;;;65.00;24.30;;;;;;;1.56;94.18;103937.22;5064420;28;20036;-67
2022/01/13 04:53:55;;;;;;;52.70;24.50;;;;;;;1.60;93.69;103941.41;5073823;28;20417;-67
2022/01/13 04:56:40;;;;;;;49.60;24.90;;;;;;;1.64;94.71;103926.94;5074496;28;20036;-67
2022/01/13 04:59:07;;;;;;;57.63;24.27;;;;;;;1.64;93.75;103928.75;5075172;28;20119;-67
2022/01/13 05:01:32;;;;;;;77.75;23.50;;;;;;;1.66;93.53;103933.06;5057227;28;20589;-67
2022/01/13 05:03:57;;;;;;;72.78;23.40;;;;;;;1.63;93.84;103927.03;5054800;28;20037;-67
2022/01/13 05:06:23;;;;;;;69.88;23.30;;;;;;;1.61;93.38;103935.13;5054847;28;20108;-67
2022/01/13 05:08:49;;;;;;;80.28;24.60;;;;;;;1.59;93.49;103926.34;5062006;28;20028;-67
2022/01/13 05:11:16;;;;;;;67.35;22.73;;;;;;;1.51;93.73;103936.59;5074202;28;20040;-67
2022/01/13 05:13:41;;;;;;;74.18;23.25;;;;;;;1.44;93.71;103936.09;5073005;28;20033;-67
2022/01/13 05:16:10;;;;;;;54.35;23.85;;;;;;;1.44;93.48;103932.59;5074975;28;20028;-67
2022/01/13 05:21:17;;;;;;;55.88;25.00;;;;;;;1.51;94.24;103940.16;5080861;28;20086;-67
2022/01/13 05:23:42;;;;;;;64.63;24.63;;;;;;;1.53;94.02;103948.91;5056011;28;20025;-67
2022/01/13 05:26:07;;;;;;;72.15;24.77;;;;;;;1.53;93.38;103946.25;5053491;28;20033;-67
2022/01/13 05:28:33;;;;;;;78.40;24.17;;;;;;;1.50;93.34;103940.25;5070012;28;20038;-67
2022/01/13 05:30:58;;;;;;;60.17;22.52;;;;;;;1.51;93.86;103939.25;5071142;28;20032;-67
2022/01/13 05:33:23;;;;;;;75.25;23.27;;;;;;;1.51;94.09;103944.59;5055471;28;20029;-67
2022/01/13 05:35:48;;;;;;;75.57;24.08;;;;;;;1.49;93.61;103942.03;5053387;28;20448;-67
2022/01/13 05:38:14;;;;;;;62.20;24.55;;;;;;;1.53;93.84;103942.72;5061760;28;20024;-67
2022/01/13 05:40:39;;;;;;;89.43;25.75;;;;;;;1.51;94.12;103942.81;5074324;28;20523;-67
2022/01/13 05:43:05;;;;;;;95.90;24.98;;;;;;;1.47;94.16;103949.28;5074643;28;20041;-67
2022/01/13 05:45:33;;;;;;;81.68;25.50;;;;;;;1.41;93.95;103938.94;5054271;28;20155;-68
2022/01/13 05:47:59;;;;;;;74.85;26.35;;;;;;;1.40;93.93;103939.88;5054447;28;20036;-67
2022/01/13 05:50:26;;;;;;;67.68;25.92;;;;;;;1.45;93.56;103942.28;5058738;28;20114;-67
2022/01/13 05:52:51;;;;;;;64.15;25.85;;;;;;;1.44;94.05;103949.44;5057204;28;20029;-67
2022/01/13 05:55:18;;;;;;;87.25;27.05;;;;;;;1.40;93.99;103937.22;5053957;28;20029;-67
2022/01/13 05:57:44;;;;;;;82.97;25.83;;;;;;;1.42;94.36;103946.03;5063920;28;20058;-67
2022/01/13 06:00:11;;;;;;;65.30;26.73;;;;;;;1.44;94.14;103946.78;5054078;28;20076;-67
2022/01/13 06:02:38;;;;;;;84.50;26.38;;;;;;;1.45;93.79;103944.97;5051419;28;20510;-67
2022/01/13 06:05:04;;;;;;;75.88;26.77;;;;;;;1.41;93.98;103947.81;5065264;28;20399;-67
2022/01/13 06:07:29;;;;;;;72.28;27.67;;;;;;;1.41;94.08;103941.63;5073116;28;20472;-67
2022/01/13 06:09:55;;;;;;;65.95;26.88;;;;;;;1.47;94.94;103935.94;5073918;28;20024;-67
2022/01/13 06:12:31;;;;;;;93.72;28.50;;;;;;;1.49;94.37;103939.34;5073670;28;20024;-67
2022/01/13 06:14:56;;;;;;;70.28;27.10;;;;;;;1.48;94.97;103935.00;5061355;28;20036;-67
2022/01/13 06:17:21;;;;;;;62.90;27.42;;;;;;;1.50;94.02;103937.56;5073503;28;20079;-67
2022/01/13 06:19:47;;;;;;;91.85;28.45;;;;;;;1.54;93.92;103933.75;5073651;28;20029;-67
2022/01/13 06:22:12;;;;;;;73.15;27.08;;;;;;;1.51;94.64;103933.94;5073845;28;20024;-67
2022/01/13 06:24:37;;;;;;;58.20;28.60;;;;;;;1.53;94.90;103922.22;5073386;28;20036;-67
2022/01/13 06:27:03;;;;;;;73.97;26.67;;;;;;;1.54;94.13;103929.28;5074668;28;20040;-67
2022/01/13 06:29:28;;;;;;;79.35;25.85;;;;;;;1.53;94.60;103916.88;5073363;28;20024;-67
2022/01/13 06:31:54;;;;;;;56.35;26.48;;;;;;;1.53;94.58;103929.38;5071316;28;20039;-67
2022/01/13 06:34:19;;;;;;;107.00;25.10;;;;;;;1.52;94.47;103925.81;5054583;28;20037;-67
2022/01/13 06:36:45;;;;;;;109.13;24.83;;;;;;;1.51;94.07;103923.25;5058944;28;20510;-67
2022/01/13 06:39:10;;;;;;;145.50;26.17;;;;;;;1.46;94.25;103926.19;5073068;28;20033;-67
2022/01/13 06:41:39;;;;;;;134.80;24.85;;;;;;;1.48;94.59;103921.66;5073006;28;20025;-67
2022/01/13 06:44:04;;;;;;;91.60;23.90;;;;;;;1.45;94.26;103916.47;5071576;28;20463;-67
2022/01/13 06:46:30;;;;;;;118.18;23.33;;;;;;;1.48;95.02;103926.97;5062982;28;20086;-67
2022/01/13 06:48:55;;;;;;;66.68;22.92;;;;;;;1.48;94.39;103935.00;5072569;28;20452;-67
2022/01/13 06:51:20;;;;;;;94.93;24.65;;;;;;;1.49;94.42;103936.69;5069263;28;20240;-67
2022/01/13 06:53:45;;;;;;;70.63;23.15;;;;;;;1.47;95.03;103941.25;5067819;28;20033;-67
2022/01/13 06:56:11;;;;;;;105.45;23.95;;;;;;;1.47;94.65;103933.25;5072701;28;20459;-67
2022/01/13 06:58:36;;;;;;;68.95;23.60;;;;;;;1.47;95.10;103927.91;5076530;28;20035;-67
2022/01/13 07:01:01;;;;;;;82.18;24.00;;;;;;;1.50;94.54;103935.75;5068052;28;20044;-67
2022/01/13 07:03:26;;;;;;;90.80;25.33;;;;;;;1.51;94.83;103933.94;5072439;28;20025;-67
2022/01/13 07:05:52;;;;;;;66.35;24.42;;;;;;;1.54;94.73;103934.63;5072997;28;20088;-67
2022/01/13 07:08:17;;;;;;;83.20;24.35;;;;;;;1.55;95.44;103928.31;5072271;28;20471;-67
2022/01/13 07:10:45;;;;;;;65.95;24.98;;;;;;;1.57;94.82;103923.78;5070921;28;20031;-67
2022/01/13 07:13:10;;;;;;;50.97;24.65;;;;;;;1.62;95.11;103930.66;5069983;28;20064;-67
2022/01/13 07:15:35;;;;;;;77.72;25.17;;;;;;;1.61;95.35;103927.09;5052552;28;20064;-67
2022/01/13 07:18:01;;;;;;;79.63;25.00;;;;;;;1.64;95.21;103923.41;5055693;28;20028;-67
2022/01/13 07:20:27;;;;;;;93.50;23.98;;;;;;;1.63;94.71;103921.69;5070488;28;20039;-67
2022/01/13 07:22:53;;;;;;;92.88;24.90;;;;;;;1.61;94.98;103929.78;5070554;28;20068;-67
2022/01/13 07:25:18;;;;;;;68.75;25.15;;;;;;;1.55;95.07;103931.00;5053251;28;20492;-67
2022/01/13 07:27:43;;;;;;;76.18;24.60;;;;;;;1.55;95.19;103936.31;5056520;28;20032;-67
2022/01/13 07:30:10;;;;;;;77.18;22.30;;;;;;;1.54;95.47;103937.28;5072321;28;20472;-67
2022/01/13 07:32:36;;;;;;;77.15;23.52;;;;;;;1.52;95.58;103936.50;5077923;28;20028;-67
2022/01/13 07:35:01;;;;;;;83.07;23.73;;;;;;;1.52;95.10;103931.16;5059157;28;20074;-67
2022/01/13 07:37:26;;;;;;;79.90;23.63;;;;;;;1.57;95.40;103929.09;5058885;28;20083;-67
2022/01/13 07:39:52;;;;;;;62.85;23.00;;;;;;;1.57;95.13;103933.56;5052136;28;20546;-67
2022/01/13 07:42:17;;;;;;;61.55;22.75;;;;;;;1.61;95.24;103934.25;5064087;28;20033;-67
2022/01/13 07:44:43;;;;;;;110.25;23.75;;;;;;;1.61;95.93;103928.94;5071860;28;20058;-67
2022/01/13 07:47:08;;;;;;;68.05;22.42;;;;;;;1.62;95.53;103930.66;5072506;28;20422;-67
2022/01/13 07:49:35;;;;;;;56.45;22.52;;;;;;;1.61;95.35;103923.59;5071584;28;20081;-67
2022/01/13 07:52:01;;;;;;;61.03;22.77;;;;;;;1.58;95.63;103927.28;5073441;28;20464;-67
2022/01/13 07:54:30;;;;;;;86.75;22.88;;;;;;;1.61;95.25;103934.25;5070908;28;20040;-67
2022/01/13 07:56:55;;;;;;;56.40;21.67;;;;;;;1.58;95.39;103940.63;5072321;28;20452;-67
2022/01/13 07:59:21;;;;;;;77.07;22.65;;;;;;;1.55;95.35;103931.00;5074655;28;20040;-67
2022/01/13 08:01:47;;;;;;;74.75;22.40;;;;;;;1.55;95.58;103935.47;5073841;28;20020;-67
2022/01/13 08:04:12;;;;;;;59.30;22.05;;;;;;;1.57;96.07;103945.13;5074027;28;20411;-67
2022/01/13 08:06:38;;;;;;;69.60;21.58;;;;;;;1.57;96.49;103946.91;5075564;28;20028;-67
2022/01/13 08:09:03;;;;;;;53.85;21.48;;;;;;;1.59;96.14;103943.22;5068651;28;20044;-67
2022/01/13 08:11:28;;;;;;;86.55;22.15;;;;;;;1.60;95.61;103944.06;5078240;28;20055;-67
2022/01/13 08:13:54;;;;;;;60.17;21.10;;;;;;;1.62;95.98;103942.19;5083494;28;20491;-67
2022/01/13 08:16:19;;;;;;;57.20;22.05;;;;;;;1.66;96.28;103949.06;5056229;28;20060;-67
2022/01/13 08:21:28;;;;;;;52.13;21.42;;;;;;;1.70;95.93;103960.41;5061275;28;20051;-67
2022/01/13 08:23:54;;;;;;;58.83;23.20;;;;;;;1.76;96.35;103946.72;5075565;28;20032;-67
2022/01/13 08:26:20;;;;;;;76.03;25.50;;;;;;;1.75;96.29;103948.53;5056357;28;20035;-67
2022/01/13 08:28:46;;;;;;;47.38;22.33;;;;;;;1.78;96.12;103958.16;5055559;28;20051;-67
2022/01/13 08:31:11;;;;;;;70.45;25.02;;;;;;;1.79;96.08;103954.53;5063816;28;20141;-67
2022/01/13 08:33:36;;;;;;;84.55;24.08;;;;;;;1.75;95.73;103956.53;5074111;28;20032;-67
2022/01/13 08:36:02;;;;;;;50.97;21.42;;;;;;;1.77;95.97;103953.78;5055651;28;20029;-67
2022/01/13 08:38:28;;;;;;;61.85;22.02;;;;;;;1.79;95.31;103970.56;5055386;28;20036;-67
2022/01/13 08:40:57;;;;;;;73.95;22.15;;;;;;;1.81;95.94;103960.63;5055463;28;20104;-67
2022/01/13 08:43:23;;;;;;;67.00;21.35;;;;;;;1.82;96.01;103967.72;5055669;28;20071;-67
2022/01/13 08:45:49;;;;;;;69.88;21.52;;;;;;;1.78;95.89;103960.81;5055398;28;20373;-67
2022/01/13 08:48:14;;;;;;;66.45;22.55;;;;;;;1.82;95.80;103973.03;5055839;28;20029;-67
2022/01/13 08:50:40;;;;;;;66.65;21.73;;;;;;;1.82;95.58;103973.03;5073490;28;20090;-67
2022/01/13 08:53:05;;;;;;;58.75;20.50;;;;;;;1.82;95.58;103978.38;5074811;28;20039;-67
2022/01/13 08:55:31;;;;;;;54.10;22.40;;;;;;;1.83;95.61;103976.56;5075129;28;20063;-67
2022/01/13 08:57:57;;;;;;;61.10;22.27;;;;;;;1.85;95.81;103967.53;5074743;28;20112;-67
2022/01/13 09:00:22;;;;;;;79.93;22.83;;;;;;;1.86;96.29;103971.94;5058225;28;20131;-67
2022/01/13 09:02:48;;;;;;;63.63;21.70;;;;;;;1.87;96.17;103978.13;5053247;28;20036;-67
2022/01/13 09:05:15;;;;;;;63.63;22.02;;;;;;;1.87;95.43;103984.34;5054872;28;20029;-68
2022/01/13 09:07:41;;;;;;;53.70;21.55;;;;;;;1.87;95.95;103989.69;5054960;28;20035;-69
2022/01/13 09:10:08;;;;;;;67.90;22.90;;;;;;;1.88;95.89;103986.03;5070345;28;20102;-69
2022/01/13 09:12:34;;;;;;;69.63;22.80;;;;;;;1.90;96.18;103986.81;5061825;28;20078;-69
2022/01/13 09:15:13;;;;;;;65.35;23.17;;;;;;;1.93;96.26;103983.97;5068755;28;20036;-69
2022/01/13 09:17:39;;;;;;;51.90;22.10;;;;;;;1.98;95.84;103994.38;5068444;28;20544;-68
2022/01/13 09:20:05;;;;;;;76.57;22.38;;;;;;;1.98;96.13;103986.38;5076216;28;20444;-68
2022/01/13 09:22:30;;;;;;;67.85;22.55;;;;;;;2.00;95.84;103988.94;5074296;28;20128;-68
2022/01/13 09:24:56;;;;;;;67.38;21.85;;;;;;;2.03;95.68;103994.97;5061086;28;20025;-68
2022/01/13 09:27:21;;;;;;;48.25;21.98;;;;;;;2.04;96.43;103993.13;5054698;28;20033;-68
2022/01/13 09:29:46;;;;;;;61.83;22.00;;;;;;;2.08;96.06;103992.00;5063182;28;20455;-71
2022/01/13 09:32:11;;;;;;;55.65;22.10;;;;;;;2.07;95.50;104001.84;5074448;28;20058;-69
2022/01/13 09:34:41;;;;;;;71.05;22.48;;;;;;;2.04;95.50;103994.00;5060210;28;20035;-69
2022/01/13 09:37:07;;;;;;;52.35;21.13;;;;;;;2.07;95.66;103998.31;5064060;28;20036;-69
2022/01/13 09:39:33;;;;;;;83.80;21.73;;;;;;;2.05;95.53;104000.22;5068746;28;20025;-69
2022/01/13 09:42:00;;;;;;;49.15;21.42;;;;;;;2.06;95.67;104004.59;5064301;28;20043;-72
2022/01/13 09:44:28;;;;;;;58.40;21.63;;;;;;;2.06;96.28;103999.28;5073505;28;20048;-71
2022/01/13 09:46:53;;;;;;;51.22;23.10;;;;;;;2.08;96.05;103992.00;5057583;28;20079;-72
2022/01/13 09:49:19;;;;;;;56.55;21.33;;;;;;;2.10;95.90;103992.81;5057353;28;20033;-72
2022/01/13 09:51:45;;;;;;;106.85;24.23;;;;;;;2.08;95.77;103989.34;5053926;28;20029;-71
2022/01/13 09:54:11;;;;;;;71.95;22.75;;;;;;;2.12;95.60;103990.88;5054115;28;20024;-71
2022/01/13 09:56:36;;;;;;;70.00;21.23;;;;;;;2.08;96.26;103997.34;5053815;28;20033;-71
2022/01/13 09:59:05;;;;;;;52.28;21.63;;;;;;;2.12;96.12;103993.56;5089151;28;20090;-71
2022/01/13 10:01:30;;;;;;;61.80;22.60;;;;;;;2.13;96.13;103992.63;5087083;28;20028;-72
2022/01/13 10:03:56;;;;;;;74.57;21.33;;;;;;;2.15;96.30;103987.19;5073294;28;20518;-71
2022/01/13 10:06:21;;;;;;;70.30;21.80;;;;;;;2.18;95.98;103995.84;5073778;28;20060;-71
2022/01/13 10:08:50;;;;;;;76.22;22.80;;;;;;;2.16;95.73;103988.88;5067097;28;20037;-71
2022/01/13 10:11:48;;;;;;;75.38;22.13;;;;;;;2.21;96.30;103997.50;5063109;28;20540;-71
2022/01/13 10:16:53;;;;;;;70.75;20.35;;;;;;;2.15;95.95;103992.53;5074293;28;20036;-72
2022/01/13 10:19:35;;;;;;;58.30;21.23;;;;;;;2.20;96.34;103995.75;5093873;28;20028;-72
2022/01/13 10:22:05;;;;;;;55.83;21.83;;;;;;;2.21;95.79;103989.47;5093167;28;20035;-71
2022/01/13 10:24:33;;;;;;;85.80;20.45;;;;;;;2.25;95.29;103986.53;5076104;28;20107;-70
2022/01/13 10:27:02;;;;;;;77.03;20.95;;;;;;;2.23;95.65;103988.41;5064584;28;20054;-70
2022/01/13 10:29:50;;;;;;;81.35;21.00;;;;;;;2.20;95.64;103985.06;5073488;28;20056;-69
2022/01/13 10:32:20;;;;;;;51.80;21.38;;;;;;;2.18;95.96;103987.84;5073205;28;20136;-70
2022/01/13 10:34:48;;;;;;;59.43;21.70;;;;;;;2.17;95.56;103996.81;5066602;28;20063;-71
2022/01/13 10:37:16;;;;;;;68.30;21.55;;;;;;;2.18;96.10;104003.03;5064879;28;20058;-69
2022/01/13 10:39:49;;;;;;;63.95;22.98;;;;;;;2.19;96.36;104004.72;5057847;28;20028;-69
2022/01/13 10:45:17;;;;;;;71.22;21.35;;;;;;;2.23;96.04;103996.44;5064450;28;20044;-70
2022/01/13 10:47:53;;;;;;;55.92;20.65;;;;;;;2.36;96.17;103993.03;5073023;28;20024;-69
2022/01/13 10:50:22;;;;;;;46.40;20.95;;;;;;;2.41;96.04;103993.59;5072913;28;20028;-72
2022/01/13 10:52:49;;;;;;;54.22;20.90;;;;;;;2.42;95.97;103993.50;5070329;28;20032;-69
2022/01/13 10:55:21;;;;;;;45.67;20.70;;;;;;;2.47;96.23;103994.09;5053107;28;20040;-69
2022/01/13 10:57:49;;;;;;;42.20;19.90;;;;;;;2.50;96.19;103995.72;5057433;28;20059;-70
2022/01/13 11:00:20;;;;;;;45.22;19.55;;;;;;;2.52;95.56;103988.47;5061927;28;20044;-69
2022/01/13 11:03:20;;;;;;;45.92;20.60;;;;;;;2.61;95.34;103979.88;5070362;28;20383;-70
2022/01/13 11:05:51;;;;;;;50.95;20.30;;;;;;;2.60;95.28;103971.97;5040577;28;20037;-69
2022/01/13 11:08:30;;;;;;;70.03;20.13;;;;;;;2.59;94.95;103964.88;5052919;28;20021;-68
2022/01/13 11:11:00;;;;;;;48.05;18.48;;;;;;;2.58;95.05;103969.38;5077972;28;20102;-68
2022/01/13 11:13:28;;;;;;;50.60;19.58;;;;;;;2.58;94.20;103968.50;5054874;28;20115;-70
2022/01/13 11:15:57;;;;;;;52.47;19.75;;;;;;;2.54;94.68;103962.50;5052271;28;20040;-69
2022/01/13 11:18:29;;;;;;;47.13;20.15;;;;;;;2.48;94.41;103973.56;5052949;28;20124;-70
2022/01/13 11:20:55;;;;;;;62.97;22.40;;;;;;;2.46;94.38;103959.44;5051187;28;20033;-74
2022/01/13 11:23:21;;;;;;;43.65;19.92;;;;;;;2.45;95.25;103960.41;5050906;28;20037;-72
2022/01/13 11:25:50;;;;;;;50.92;19.95;;;;;;;2.45;95.62;103949.72;5052091;28;20032;-70
2022/01/13 11:28:16;;;;;;;52.72;18.75;;;;;;;2.47;95.34;103945.97;5053669;28;20570;-73
2022/01/13 11:30:42;;;;;;;48.03;21.27;;;;;;;2.48;95.07;103938.81;5064085;28;20027;-69
2022/01/13 11:33:07;;;;;;;47.38;20.08;;;;;;;2.50;95.01;103944.94;5084556;28;20032;-71
2022/01/13 11:35:37;;;;;;;47.72;20.55;;;;;;;2.50;94.54;103939.56;5061672;28;20384;-72
2022/01/13 11:38:06;;;;;;;55.42;20.23;;;;;;;2.45;95.28;103941.69;5072431;28;20029;-72
2022/01/13 11:40:35;;;;;;;51.58;19.73;;;;;;;2.46;94.83;103933.56;5072523;28;20068;-72
2022/01/13 11:43:03;;;;;;;48.75;20.00;;;;;;;2.51;95.17;103943.97;5072343;28;20035;-70